Time;durP1;ratioP1;P1;durP2;ratioP2;P2;SDS_P1;SDS_P2;PMS_P1;PMS_P2;Temp;Humidity;BMP_temperature;BMP_pressure;BME280_temperature;BME280_humidity;BME280_pressure;Samples;Min_cycle;Max_cycle;Signal;HPM_P1;HPM_P2
2023/08/09 00:00:23;;;;;;;2.28;1.17;;;;;;;;;;10595808;28;20045;-78
2023/08/09 00:05:31;;;;;;;4.78;1.30;;;;;;;;;;10599322;27;20058;-79
2023/08/09 00:10:39;;;;;;;1.40;0.77;;;;;;;;;;10618111;27;20099;-79
2023/08/09 00:15:44;;;;;;;3.10;1.30;;;;;;;;;;10609653;27;20062;-78
2023/08/09 00:20:53;;;;;;;2.42;1.08;;;;;;;;;;10596281;27;20027;-78
2023/08/09 00:26:08;;;;;;;0.93;0.75;;;;;;;;;;10588316;27;20034;-78
2023/08/09 00:31:14;;;;;;;3.33;1.52;;;;;;;;;;10596511;27;20050;-80
2023/08/09 00:41:49;;;;;;;3.13;0.90;;;;;;;;;;10567473;27;20277;-80
2023/08/09 00:46:55;;;;;;;1.45;1.00;;;;;;;;;;10578345;27;20047;-80
2023/08/09 00:52:15;;;;;;;2.83;1.30;;;;;;;;;;10556368;28;20040;-80
2023/08/09 00:57:21;;;;;;;1.65;0.57;;;;;;;;;;10558974;28;20052;-80
2023/08/09 01:02:29;;;;;;;2.63;1.23;;;;;;;;;;10544179;28;20582;-80
2023/08/09 01:07:41;;;;;;;2.60;1.30;;;;;;;;;;10546813;28;20051;-78
2023/08/09 01:12:53;;;;;;;1.80;0.80;;;;;;;;;;10543097;28;20063;-75
2023/08/09 01:18:03;;;;;;;2.72;1.17;;;;;;;;;;10571000;28;20050;-77
2023/08/09 01:28:53;;;;;;;1.95;1.23;;;;;;;;;;10597647;27;20052;-77
2023/08/09 01:34:07;;;;;;;5.20;1.38;;;;;;;;;;10560136;28;20040;-77
2023/08/09 01:39:15;;;;;;;2.78;1.20;;;;;;;;;;10559680;28;20039;-77
2023/08/09 01:44:31;;;;;;;4.60;1.10;;;;;;;;;;10562567;28;20083;-77
2023/08/09 01:49:46;;;;;;;1.80;1.25;;;;;;;;;;10547688;28;20047;-78
2023/08/09 01:55:05;;;;;;;3.17;1.10;;;;;;;;;;10545663;28;20064;-78
2023/08/09 02:00:19;;;;;;;2.25;1.20;;;;;;;;;;10544154;27;20090;-78
2023/08/09 02:05:35;;;;;;;1.67;0.85;;;;;;;;;;10567379;27;20119;-78
2023/08/09 02:10:44;;;;;;;3.15;1.33;;;;;;;;;;10556964;27;20054;-79
2023/08/09 02:16:07;;;;;;;3.50;1.33;;;;;;;;;;10581415;27;20122;-78
2023/08/09 02:21:16;;;;;;;2.13;1.10;;;;;;;;;;10561827;27;20060;-79
2023/08/09 02:26:22;;;;;;;1.98;0.98;;;;;;;;;;10567367;27;20044;-78
2023/08/09 02:31:52;;;;;;;2.03;1.15;;;;;;;;;;10556014;27;20051;-77
2023/08/09 02:37:05;;;;;;;2.03;1.08;;;;;;;;;;10563599;27;20044;-78
2023/08/09 02:42:16;;;;;;;1.85;1.10;;;;;;;;;;10547236;27;20066;-78
2023/08/09 02:47:37;;;;;;;1.10;0.55;;;;;;;;;;10567396;27;20040;-78
2023/08/09 02:52:44;;;;;;;3.30;1.23;;;;;;;;;;10559039;27;20090;-78
2023/08/09 02:57:53;;;;;;;2.85;1.40;;;;;;;;;;10552818;28;20043;-78
2023/08/09 03:02:58;;;;;;;4.13;1.60;;;;;;;;;;10573781;27;20394;-79
2023/08/09 03:08:10;;;;;;;2.10;0.95;;;;;;;;;;10555886;27;20054;-79
2023/08/09 03:13:19;;;;;;;1.58;1.10;;;;;;;;;;10551606;27;20511;-79
2023/08/09 03:18:23;;;;;;;1.10;0.85;;;;;;;;;;10569597;27;20032;-79
2023/08/09 03:23:37;;;;;;;2.88;1.17;;;;;;;;;;10550562;27;20117;-78
2023/08/09 03:28:48;;;;;;;1.38;1.00;;;;;;;;;;10567319;28;20047;-78
2023/08/09 03:33:54;;;;;;;2.65;1.30;;;;;;;;;;10554919;27;20063;-78
2023/08/09 03:39:19;;;;;;;2.90;1.10;;;;;;;;;;10553249;27;20048;-79
2023/08/09 03:44:24;;;;;;;1.92;1.17;;;;;;;;;;10555180;28;20138;-78
2023/08/09 03:49:32;;;;;;;3.35;1.20;;;;;;;;;;10558284;27;20532;-79
2023/08/09 03:54:43;;;;;;;2.40;1.15;;;;;;;;;;10561948;27;20542;-77
2023/08/09 03:59:51;;;;;;;2.72;1.27;;;;;;;;;;10565651;27;20082;-77
2023/08/09 04:05:05;;;;;;;2.30;1.13;;;;;;;;;;10558911;27;20078;-78
2023/08/09 04:10:15;;;;;;;2.42;1.30;;;;;;;;;;10564785;27;20050;-79
2023/08/09 04:15:22;;;;;;;2.45;1.42;;;;;;;;;;10565734;27;20552;-79
2023/08/09 04:20:32;;;;;;;1.92;1.15;;;;;;;;;;10557337;27;20506;-79
2023/08/09 04:25:46;;;;;;;2.70;1.35;;;;;;;;;;10559851;27;20036;-79
2023/08/09 04:30:53;;;;;;;4.18;1.60;;;;;;;;;;10536153;28;20123;-79
2023/08/09 04:35:57;;;;;;;3.00;1.55;;;;;;;;;;10574791;27;20039;-79
2023/08/09 04:41:06;;;;;;;1.75;1.10;;;;;;;;;;10563980;28;20121;-78
2023/08/09 04:46:21;;;;;;;4.15;1.17;;;;;;;;;;10576818;28;20035;-78
2023/08/09 04:51:40;;;;;;;3.90;1.70;;;;;;;;;;10566353;28;20047;-78
2023/08/09 04:56:46;;;;;;;;;;;;;;;;;;10559799;28;20055;-77
2023/08/09 05:02:05;;;;;;;4.13;1.42;;;;;;;;;;10560551;28;19987;-78
2023/08/09 05:07:12;;;;;;;1.15;0.63;;;;;;;;;;10565251;28;20035;-78
2023/08/09 05:12:17;;;;;;;4.85;1.60;;;;;;;;;;10538626;28;20128;-78
2023/08/09 05:17:34;;;;;;;3.17;1.38;;;;;;;;;;10551226;28;20070;-78
2023/08/09 05:22:48;;;;;;;3.10;1.08;;;;;;;;;;10564881;27;20035;-79
2023/08/09 05:28:02;;;;;;;2.05;0.80;;;;;;;;;;10577198;27;20119;-79
2023/08/09 05:33:14;;;;;;;2.03;1.45;;;;;;;;;;10561690;27;20040;-80
2023/08/09 05:38:21;;;;;;;4.25;1.55;;;;;;;;;;10567486;27;20039;-79
2023/08/09 05:43:36;;;;;;;4.00;1.88;;;;;;;;;;10572937;27;20052;-78
2023/08/09 05:48:54;;;;;;;5.53;1.48;;;;;;;;;;10574219;27;20513;-79
2023/08/09 05:53:58;;;;;;;4.00;1.80;;;;;;;;;;10546829;27;20092;-79
2023/08/09 05:59:16;;;;;;;2.88;1.63;;;;;;;;;;10584018;27;20482;-78
2023/08/09 06:04:24;;;;;;;3.30;1.10;;;;;;;;;;10575682;27;20412;-78
2023/08/09 06:09:32;;;;;;;5.20;1.63;;;;;;;;;;10565640;27;21602;-77
2023/08/09 06:14:40;;;;;;;1.98;0.88;;;;;;;;;;10547225;27;20044;-78
2023/08/09 06:19:50;;;;;;;2.15;0.90;;;;;;;;;;10556844;27;20410;-77
2023/08/09 06:25:00;;;;;;;2.22;1.25;;;;;;;;;;10565818;27;20119;-78
2023/08/09 06:30:13;;;;;;;2.47;1.35;;;;;;;;;;10569435;27;20035;-78
2023/08/09 06:35:21;;;;;;;4.85;1.67;;;;;;;;;;10553318;27;20053;-78
2023/08/09 06:40:33;;;;;;;1.80;1.23;;;;;;;;;;10557715;27;20047;-78
2023/08/09 06:45:39;;;;;;;2.65;1.40;;;;;;;;;;10561476;27;20035;-79
2023/08/09 06:51:04;;;;;;;4.55;1.23;;;;;;;;;;10562873;27;20070;-78
2023/08/09 06:56:11;;;;;;;2.70;1.27;;;;;;;;;;10538891;28;20044;-78
2023/08/09 07:01:19;;;;;;;3.30;1.92;;;;;;;;;;10564750;27;20093;-79
2023/08/09 07:06:26;;;;;;;4.93;1.85;;;;;;;;;;10560543;28;20172;-79
2023/08/09 07:11:35;;;;;;;1.73;1.17;;;;;;;;;;10545521;27;20063;-79
2023/08/09 07:16:43;;;;;;;1.85;1.30;;;;;;;;;;10542771;27;20123;-80
2023/08/09 07:21:52;;;;;;;2.92;1.35;;;;;;;;;;10559982;27;20053;-78
2023/08/09 07:27:00;;;;;;;1.48;0.85;;;;;;;;;;10552592;28;20081;-78
2023/08/09 07:32:11;;;;;;;3.88;1.50;;;;;;;;;;10586557;27;20110;-78
2023/08/09 07:37:19;;;;;;;1.95;1.33;;;;;;;;;;10565207;27;20051;-79
2023/08/09 07:42:26;;;;;;;2.20;1.23;;;;;;;;;;10561243;27;20028;-78
2023/08/09 07:47:33;;;;;;;2.60;1.08;;;;;;;;;;10544014;27;20051;-78
2023/08/09 07:52:41;;;;;;;3.33;1.60;;;;;;;;;;10554187;27;20125;-78
2023/08/09 07:57:49;;;;;;;4.28;1.30;;;;;;;;;;10565289;27;20408;-78
2023/08/09 08:02:57;;;;;;;4.47;1.52;;;;;;;;;;10547584;27;20047;-77
2023/08/09 08:08:21;;;;;;;3.13;1.42;;;;;;;;;;10550739;28;20034;-79
2023/08/09 08:13:26;;;;;;;2.22;1.10;;;;;;;;;;10572562;27;20489;-78
2023/08/09 08:18:32;;;;;;;1.88;1.33;;;;;;;;;;10561839;28;20134;-78
2023/08/09 08:23:42;;;;;;;3.35;1.42;;;;;;;;;;10540256;28;20039;-78
2023/08/09 08:28:49;;;;;;;3.03;1.30;;;;;;;;;;10568152;27;20040;-79
2023/08/09 08:34:08;;;;;;;1.40;1.25;;;;;;;;;;10541231;28;20043;-79
2023/08/09 08:39:15;;;;;;;3.72;1.40;;;;;;;;;;10557740;28;20094;-78
2023/08/09 08:44:29;;;;;;;2.55;0.98;;;;;;;;;;10568282;28;20401;-79
2023/08/09 08:49:40;;;;;;;3.28;1.23;;;;;;;;;;10562385;28;20527;-80
2023/08/09 08:54:48;;;;;;;1.45;1.00;;;;;;;;;;10538571;27;20048;-79
2023/08/09 08:59:55;;;;;;;2.75;1.52;;;;;;;;;;10574511;27;20079;-79
2023/08/09 09:05:00;;;;;;;1.70;1.13;;;;;;;;;;10561005;27;20467;-80
2023/08/09 09:10:15;;;;;;;5.68;2.08;;;;;;;;;;10573354;27;20498;-80
2023/08/09 09:15:24;;;;;;;4.43;1.80;;;;;;;;;;10579022;27;20202;-79
2023/08/09 09:20:33;;;;;;;1.35;1.02;;;;;;;;;;10576610;27;20040;-80
2023/08/09 09:25:54;;;;;;;3.08;1.35;;;;;;;;;;10569978;27;20058;-79
2023/08/09 09:31:17;;;;;;;4.15;1.95;;;;;;;;;;10559440;28;20047;-79
2023/08/09 09:36:26;;;;;;;3.55;1.67;;;;;;;;;;10559101;27;20501;-79
2023/08/09 09:41:50;;;;;;;3.42;1.92;;;;;;;;;;10526588;27;20043;-79
2023/08/09 09:47:07;;;;;;;2.00;1.20;;;;;;;;;;10543263;27;20149;-79
2023/08/09 09:52:30;;;;;;;3.28;2.00;;;;;;;;;;10580686;27;20062;-79
2023/08/09 09:57:38;;;;;;;5.70;2.55;;;;;;;;;;10566385;28;20055;-79
2023/08/09 10:02:50;;;;;;;7.25;1.90;;;;;;;;;;10568368;27;20040;-79
2023/08/09 10:08:03;;;;;;;3.67;1.73;;;;;;;;;;10552995;27;20083;-79
2023/08/09 10:13:23;;;;;;;5.38;2.10;;;;;;;;;;10548040;27;20350;-79
2023/08/09 10:19:00;;;;;;;4.32;2.03;;;;;;;;;;10545802;28;20055;-79
2023/08/09 10:24:18;;;;;;;5.00;2.42;;;;;;;;;;10553597;27;20054;-79
2023/08/09 10:29:40;;;;;;;3.67;1.48;;;;;;;;;;10550871;27;20556;-79
2023/08/09 10:34:58;;;;;;;4.20;1.58;;;;;;;;;;10565202;27;20083;-79
2023/08/09 10:40:22;;;;;;;3.70;1.40;;;;;;;;;;10566174;27;20226;-80
2023/08/09 10:45:33;;;;;;;2.42;1.52;;;;;;;;;;10567572;27;20481;-79
2023/08/09 10:50:51;;;;;;;2.23;1.50;;;;;;;;;;10563287;27;20044;-79
2023/08/09 10:56:10;;;;;;;4.03;1.70;;;;;;;;;;10551440;27;20340;-79
2023/08/09 11:01:21;;;;;;;4.45;1.52;;;;;;;;;;10562087;27;20528;-79
2023/08/09 11:06:56;;;;;;;5.35;1.52;;;;;;;;;;10563647;27;20417;-78
2023/08/09 11:12:26;;;;;;;2.83;1.50;;;;;;;;;;10538840;27;20137;-77
2023/08/09 11:17:58;;;;;;;2.25;1.35;;;;;;;;;;10556629;27;20494;-78
2023/08/09 11:23:14;;;;;;;2.58;1.10;;;;;;;;;;10575283;27;20078;-79
2023/08/09 11:28:41;;;;;;;3.45;1.88;;;;;;;;;;10547310;27;20069;-78
2023/08/09 11:34:13;;;;;;;2.00;1.20;;;;;;;;;;10563538;27;20131;-78
2023/08/09 11:39:48;;;;;;;2.50;1.42;;;;;;;;;;10536340;27;20300;-78
2023/08/09 11:45:03;;;;;;;2.38;1.50;;;;;;;;;;10562202;27;20069;-79
2023/08/09 11:50:12;;;;;;;5.75;1.52;;;;;;;;;;10564598;27;20036;-79
2023/08/09 12:00:59;;;;;;;3.97;1.70;;;;;;;;;;10562403;27;20052;-79
2023/08/09 12:06:21;;;;;;;2.58;1.77;;;;;;;;;;10545804;27;20051;-80
2023/08/09 12:11:48;;;;;;;5.82;1.70;;;;;;;;;;10543614;27;20043;-80
2023/08/09 12:17:17;;;;;;;4.43;1.88;;;;;;;;;;10554133;27;20051;-77
2023/08/09 12:22:28;;;;;;;3.55;1.52;;;;;;;;;;10561401;27;20050;-79
2023/08/09 12:27:42;;;;;;;2.47;1.60;;;;;;;;;;10564420;27;20082;-81
2023/08/09 12:33:17;;;;;;;2.63;1.45;;;;;;;;;;10541959;27;20465;-79
2023/08/09 12:38:37;;;;;;;3.88;1.90;;;;;;;;;;10569765;27;20464;-81
2023/08/09 12:43:57;;;;;;;4.18;1.70;;;;;;;;;;10555218;28;20051;-82
2023/08/09 12:49:03;;;;;;;6.05;1.70;;;;;;;;;;10537496;28;20043;-82
2023/08/09 12:54:23;;;;;;;4.05;1.50;;;;;;;;;;10555672;28;20400;-82
2023/08/09 12:59:52;;;;;;;5.53;1.80;;;;;;;;;;10560326;28;20512;-81
2023/08/09 13:05:09;;;;;;;2.55;1.50;;;;;;;;;;10554397;28;20063;-82
2023/08/09 13:10:35;;;;;;;2.38;1.38;;;;;;;;;;10558988;28;20130;-79
2023/08/09 13:15:44;;;;;;;2.03;1.35;;;;;;;;;;10558854;28;20063;-79
2023/08/09 13:21:00;;;;;;;2.63;1.50;;;;;;;;;;10558180;28;20107;-79
2023/08/09 13:26:05;;;;;;;;;;;;;;;;;;10557385;28;20040;-79
2023/08/09 13:31:14;;;;;;;4.10;2.30;;;;;;;;;;10540670;28;19930;-78
2023/08/09 13:36:27;;;;;;;2.45;1.27;;;;;;;;;;10555771;28;20055;-78
2023/08/09 13:41:35;;;;;;;2.65;1.70;;;;;;;;;;10557579;27;20109;-77
2023/08/09 13:46:44;;;;;;;2.88;1.40;;;;;;;;;;10571164;27;20052;-77
2023/08/09 13:52:10;;;;;;;3.85;1.63;;;;;;;;;;10561390;27;20047;-78
2023/08/09 13:57:22;;;;;;;7.07;1.45;;;;;;;;;;10556343;27;20553;-77
2023/08/09 14:02:25;;;;;;;2.00;1.10;;;;;;;;;;10556877;27;20154;-77
2023/08/09 14:07:34;;;;;;;5.13;1.70;;;;;;;;;;10547411;27;20048;-78
2023/08/09 14:12:41;;;;;;;4.40;1.95;;;;;;;;;;10571275;27;20043;-77
2023/08/09 14:17:47;;;;;;;4.38;1.63;;;;;;;;;;10563696;28;20076;-76
2023/08/09 14:22:55;;;;;;;5.20;1.35;;;;;;;;;;10561237;27;20039;-77
2023/08/09 14:28:12;;;;;;;4.20;1.58;;;;;;;;;;10560026;27;20072;-77
2023/08/09 14:33:22;;;;;;;4.68;1.75;;;;;;;;;;10572037;27;20042;-77
2023/08/09 14:38:28;;;;;;;5.05;2.00;;;;;;;;;;10573576;27;20387;-77
2023/08/09 14:43:39;;;;;;;1.88;1.63;;;;;;;;;;10553902;28;20463;-77
2023/08/09 14:48:59;;;;;;;3.30;1.80;;;;;;;;;;10559322;27;20100;-78
2023/08/09 14:54:17;;;;;;;2.97;1.67;;;;;;;;;;10561710;27;20099;-78
2023/08/09 14:59:48;;;;;;;2.42;1.40;;;;;;;;;;10568311;27;20151;-77
2023/08/09 15:05:07;;;;;;;5.30;1.95;;;;;;;;;;10546909;27;20324;-78
2023/08/09 15:10:17;;;;;;;6.70;3.13;;;;;;;;;;10543997;27;20055;-78
2023/08/09 15:26:09;;;;;;;7.13;2.50;;;;;;;;;;10557568;27;20067;-79
2023/08/09 15:31:19;;;;;;;10.40;3.22;;;;;;;;;;10557776;27;20044;-76
2023/08/09 15:36:29;;;;;;;4.85;2.50;;;;;;;;;;10545238;27;20234;-78
2023/08/09 15:41:40;;;;;;;4.63;2.33;;;;;;;;;;10542863;27;20039;-77
2023/08/09 15:46:47;;;;;;;5.00;2.22;;;;;;;;;;10557238;27;20151;-77
2023/08/09 15:51:57;;;;;;;5.40;2.40;;;;;;;;;;10560633;27;20449;-77
2023/08/09 15:57:03;;;;;;;5.15;2.30;;;;;;;;;;10556522;27;20070;-77
2023/08/09 16:02:36;;;;;;;5.22;2.00;;;;;;;;;;10563809;27;20502;-77
2023/08/09 16:07:42;;;;;;;6.38;2.53;;;;;;;;;;10559470;27;20047;-77
2023/08/09 16:13:07;;;;;;;6.47;2.63;;;;;;;;;;10563125;27;20055;-77
2023/08/09 16:18:27;;;;;;;4.38;2.33;;;;;;;;;;10563146;27;20131;-77
2023/08/09 16:23:39;;;;;;;6.40;2.58;;;;;;;;;;10554814;27;20044;-77
2023/08/09 16:28:44;;;;;;;4.90;2.47;;;;;;;;;;10558442;27;20635;-77
2023/08/09 16:33:53;;;;;;;4.65;2.17;;;;;;;;;;10544058;27;20126;-77
2023/08/09 16:38:56;;;;;;;5.03;2.70;;;;;;;;;;10565395;27;20058;-78
2023/08/09 16:44:06;;;;;;;6.32;2.85;;;;;;;;;;10520674;28;20124;-78
2023/08/09 16:49:16;;;;;;;4.28;2.38;;;;;;;;;;10553505;28;20073;-78
2023/08/09 16:54:23;;;;;;;7.35;2.53;;;;;;;;;;10571473;28;20062;-77
2023/08/09 16:59:29;;;;;;;5.63;2.72;;;;;;;;;;10566309;28;20360;-77
2023/08/09 17:04:41;;;;;;;5.20;2.58;;;;;;;;;;10559028;28;20039;-77
2023/08/09 17:09:49;;;;;;;5.85;2.75;;;;;;;;;;10549587;28;20043;-77
2023/08/09 17:14:58;;;;;;;5.05;2.60;;;;;;;;;;10572622;27;20131;-77
2023/08/09 17:20:23;;;;;;;6.38;2.80;;;;;;;;;;10569541;27;20062;-77
2023/08/09 17:25:28;;;;;;;5.90;2.55;;;;;;;;;;10564019;27;20043;-76
2023/08/09 17:30:34;;;;;;;7.00;3.22;;;;;;;;;;10571410;27;20047;-77
2023/08/09 17:35:39;;;;;;;5.47;2.78;;;;;;;;;;10551940;27;20501;-76
2023/08/09 17:40:48;;;;;;;6.53;3.20;;;;;;;;;;10557626;27;20047;-76
2023/08/09 17:45:54;;;;;;;6.38;2.60;;;;;;;;;;10577266;27;20047;-76
2023/08/09 17:50:59;;;;;;;8.52;2.70;;;;;;;;;;10564291;28;20036;-77
2023/08/09 17:56:19;;;;;;;6.40;2.70;;;;;;;;;;10553769;27;20091;-77
2023/08/09 18:01:27;;;;;;;6.93;3.65;;;;;;;;;;10563453;27;20035;-77
2023/08/09 18:06:37;;;;;;;7.50;3.63;;;;;;;;;;10544879;27;20044;-77
2023/08/09 18:11:49;;;;;;;5.07;2.67;;;;;;;;;;10555248;27;20048;-77
2023/08/09 18:16:58;;;;;;;5.20;2.88;;;;;;;;;;10569708;27;20063;-77
2023/08/09 18:22:06;;;;;;;5.20;2.67;;;;;;;;;;10562992;27;20076;-77
2023/08/09 18:27:16;;;;;;;11.57;3.65;;;;;;;;;;10561047;27;20078;-75
2023/08/09 18:32:22;;;;;;;6.03;2.50;;;;;;;;;;10547875;27;20051;-77
2023/08/09 18:37:30;;;;;;;8.25;2.88;;;;;;;;;;10563700;27;20131;-77
2023/08/09 18:42:35;;;;;;;9.52;3.30;;;;;;;;;;10565838;27;20054;-78
2023/08/09 18:47:55;;;;;;;8.38;3.15;;;;;;;;;;10567259;27;20127;-77
2023/08/09 18:53:06;;;;;;;7.43;2.90;;;;;;;;;;10558772;27;20528;-77
2023/08/09 18:58:12;;;;;;;5.53;2.90;;;;;;;;;;10570482;27;20512;-77
2023/08/09 19:03:17;;;;;;;5.93;3.30;;;;;;;;;;10560716;27;20132;-77
2023/08/09 19:08:23;;;;;;;8.70;3.17;;;;;;;;;;10564958;27;20039;-78
2023/08/09 19:13:28;;;;;;;18.65;7.53;;;;;;;;;;10552272;27;20434;-78
2023/08/09 19:18:32;;;;;;;7.47;3.10;;;;;;;;;;10561446;27;20417;-74
2023/08/09 19:23:39;;;;;;;7.72;3.15;;;;;;;;;;10541140;27;20032;-75
2023/08/09 19:28:58;;;;;;;8.00;3.33;;;;;;;;;;10559079;27;20130;-75
2023/08/09 19:34:02;;;;;;;5.43;2.90;;;;;;;;;;10560243;27;20105;-75
2023/08/09 19:39:08;;;;;;;7.10;3.22;;;;;;;;;;10569584;27;20066;-76
2023/08/09 19:44:21;;;;;;;9.02;4.45;;;;;;;;;;10563562;27;20615;-75
2023/08/09 19:49:32;;;;;;;7.97;3.30;;;;;;;;;;10563196;27;20088;-75
2023/08/09 19:54:41;;;;;;;6.65;2.90;;;;;;;;;;10535437;27;21041;-76
2023/08/09 19:59:50;;;;;;;7.25;3.40;;;;;;;;;;10560472;27;20078;-75
2023/08/09 20:05:01;;;;;;;4.85;3.17;;;;;;;;;;10572991;27;20063;-77
2023/08/09 20:10:13;;;;;;;6.07;2.90;;;;;;;;;;10564369;27;20040;-75
2023/08/09 20:15:20;;;;;;;5.82;2.72;;;;;;;;;;10557762;27;20497;-75
2023/08/09 20:20:30;;;;;;;6.97;3.60;;;;;;;;;;10545157;27;20309;-75
2023/08/09 20:25:43;;;;;;;7.00;3.25;;;;;;;;;;10562224;27;20032;-75
2023/08/09 20:30:52;;;;;;;5.53;3.28;;;;;;;;;;10528218;27;20043;-75
2023/08/09 20:35:56;;;;;;;6.88;3.53;;;;;;;;;;10544116;27;20056;-75
2023/08/09 20:41:01;;;;;;;11.90;3.25;;;;;;;;;;10541982;27;20036;-77
2023/08/09 20:46:12;;;;;;;8.90;3.55;;;;;;;;;;10564162;27;20039;-76
2023/08/09 20:51:21;;;;;;;7.63;4.00;;;;;;;;;;10558239;28;20039;-76
2023/08/09 20:56:28;;;;;;;9.50;4.60;;;;;;;;;;10534669;28;20050;-75
2023/08/09 21:01:42;;;;;;;8.80;4.00;;;;;;;;;;10564096;28;20135;-75
2023/08/09 21:07:00;;;;;;;8.75;3.83;;;;;;;;;;10541780;28;20074;-75
2023/08/09 21:12:11;;;;;;;10.00;4.55;;;;;;;;;;10541149;28;20057;-76
2023/08/09 21:17:27;;;;;;;10.75;4.55;;;;;;;;;;10555048;28;20130;-76
2023/08/09 21:22:39;;;;;;;7.97;4.10;;;;;;;;;;10560439;28;20051;-76
2023/08/09 21:27:49;;;;;;;10.05;4.60;;;;;;;;;;10554694;28;20051;-76
2023/08/09 21:33:08;;;;;;;10.60;4.50;;;;;;;;;;10546859;28;20049;-77
2023/08/09 21:38:19;;;;;;;17.27;7.78;;;;;;;;;;10548084;28;20035;-77
2023/08/09 21:43:30;;;;;;;16.02;8.52;;;;;;;;;;10532137;28;20472;-77
2023/08/09 21:48:40;;;;;;;14.07;5.80;;;;;;;;;;10562832;28;20241;-77
2023/08/09 21:53:51;;;;;;;12.35;5.30;;;;;;;;;;10533432;28;20039;-77
2023/08/09 21:59:11;;;;;;;9.85;5.47;;;;;;;;;;10540401;28;20040;-76
2023/08/09 22:04:25;;;;;;;10.90;5.85;;;;;;;;;;10574358;27;20036;-76
2023/08/09 22:09:39;;;;;;;10.52;5.65;;;;;;;;;;10552439;27;20056;-77
2023/08/09 22:14:43;;;;;;;12.90;5.90;;;;;;;;;;10559603;27;20512;-76
2023/08/09 22:19:51;;;;;;;11.15;5.53;;;;;;;;;;10556665;27;20055;-77
2023/08/09 22:24:59;;;;;;;11.77;5.95;;;;;;;;;;10556143;27;20214;-76
2023/08/09 22:30:05;;;;;;;12.40;7.03;;;;;;;;;;10560896;27;20036;-77
2023/08/09 22:35:26;;;;;;;10.70;6.10;;;;;;;;;;10529669;27;20549;-76
2023/08/09 22:40:33;;;;;;;8.05;4.30;;;;;;;;;;10552373;27;20043;-77
2023/08/09 22:45:43;;;;;;;6.43;3.42;;;;;;;;;;10547018;27;20043;-77
2023/08/09 22:50:53;;;;;;;5.20;2.90;;;;;;;;;;10575735;27;20443;-77
2023/08/09 22:56:00;;;;;;;7.22;3.28;;;;;;;;;;10550430;27;20039;-76
2023/08/09 23:01:06;;;;;;;4.50;2.78;;;;;;;;;;10549254;27;20048;-76
2023/08/09 23:06:19;;;;;;;6.13;2.80;;;;;;;;;;10566433;27;20048;-76
2023/08/09 23:11:37;;;;;;;3.88;2.58;;;;;;;;;;10548569;27;20047;-76
2023/08/09 23:16:45;;;;;;;4.50;2.78;;;;;;;;;;10564475;27;20083;-76
2023/08/09 23:21:56;;;;;;;4.18;2.50;;;;;;;;;;10555611;27;20067;-76
2023/08/09 23:27:05;;;;;;;4.72;2.45;;;;;;;;;;10562706;27;20611;-76
2023/08/09 23:32:18;;;;;;;5.45;2.80;;;;;;;;;;10567299;27;20067;-77
2023/08/09 23:37:28;;;;;;;6.22;3.22;;;;;;;;;;10558007;27;20498;-77
2023/08/09 23:42:39;;;;;;;4.45;2.70;;;;;;;;;;10570998;27;20482;-77
2023/08/09 23:47:57;;;;;;;5.05;2.70;;;;;;;;;;10577184;27;20505;-77
2023/08/09 23:53:05;;;;;;;6.25;3.03;;;;;;;;;;10579393;27;20119;-77
2023/08/09 23:58:12;;;;;;;5.22;3.05;;;;;;;;;;10577571;27;20046;-77
